createdAt,value
2019-03-26T00:02:45.708Z,6.43
2019-03-26T00:05:32.711Z,7.30
2019-03-26T00:08:19.264Z,6.27
2019-03-26T00:11:05.621Z,6.83
2019-03-26T00:13:52.135Z,5.70
2019-03-26T00:16:38.195Z,5.70
2019-03-26T00:19:24.430Z,6.07
2019-03-26T00:22:11.070Z,5.50
2019-03-26T00:24:57.776Z,5.73
2019-03-26T00:27:43.919Z,5.23
2019-03-26T00:30:30.155Z,4.93
2019-03-26T00:33:16.595Z,5.33
2019-03-26T00:36:04.066Z,6.07
2019-03-26T00:38:50.627Z,5.70
2019-03-26T00:41:38.329Z,4.83
2019-03-26T00:44:24.317Z,5.37
2019-03-26T00:47:10.710Z,5.10
2019-03-26T00:49:57.264Z,5.20
2019-03-26T00:52:44.795Z,4.63
2019-03-26T00:55:32.143Z,4.57
2019-03-26T00:58:20.121Z,4.50
2019-03-26T01:01:06.303Z,3.90
2019-03-26T01:03:54.949Z,4.87
2019-03-26T01:06:41.067Z,5.33
2019-03-26T01:09:27.464Z,4.50
2019-03-26T01:12:13.867Z,4.80
2019-03-26T01:15:00.327Z,4.20
2019-03-26T01:17:46.252Z,4.50
2019-03-26T01:20:32.836Z,5.70
2019-03-26T01:23:19.479Z,4.70
2019-03-26T01:26:05.677Z,6.00
2019-03-26T01:28:51.879Z,4.93
2019-03-26T01:31:38.063Z,4.53
2019-03-26T01:34:24.425Z,5.23
2019-03-26T01:37:10.519Z,5.13
2019-03-26T01:39:56.503Z,3.73
2019-03-26T01:42:44.039Z,4.67
2019-03-26T01:45:30.475Z,5.63
2019-03-26T01:48:16.696Z,4.33
2019-03-26T01:51:03.272Z,5.00
2019-03-26T01:53:49.688Z,4.50
2019-03-26T01:56:35.787Z,5.00
2019-03-26T01:59:24.156Z,5.40
2019-03-26T02:02:10.268Z,3.30
2019-03-26T02:05:00.170Z,4.53
2019-03-26T02:07:44.929Z,3.60
2019-03-26T02:10:31.220Z,3.90
2019-03-26T02:13:18.035Z,3.67
2019-03-26T02:16:04.233Z,4.10
2019-03-26T02:18:52.272Z,4.27
2019-03-26T02:21:38.644Z,4.10
2019-03-26T02:24:25.154Z,3.67
2019-03-26T02:27:12.436Z,3.37
2019-03-26T02:29:58.524Z,3.17
2019-03-26T02:32:44.541Z,3.27
2019-03-26T02:35:30.886Z,3.13
2019-03-26T02:38:17.081Z,3.47
2019-03-26T02:41:03.644Z,3.40
2019-03-26T02:43:50.105Z,3.47
2019-03-26T02:46:36.524Z,3.57
2019-03-26T02:49:23.100Z,2.97
2019-03-26T02:52:09.602Z,3.93
2019-03-26T02:54:57.219Z,3.13
2019-03-26T02:57:43.601Z,4.37
2019-03-26T03:00:30.065Z,3.30
2019-03-26T03:03:16.138Z,3.30
2019-03-26T03:06:02.778Z,3.13
2019-03-26T03:08:49.050Z,2.93
2019-03-26T03:11:34.979Z,3.23
2019-03-26T03:14:21.682Z,2.67
2019-03-26T03:17:08.506Z,2.90
2019-03-26T03:19:54.427Z,3.50
2019-03-26T03:22:40.913Z,3.30
2019-03-26T03:25:27.267Z,3.03
2019-03-26T03:28:13.315Z,3.10
2019-03-26T03:30:59.910Z,2.90
2019-03-26T03:33:46.270Z,3.10
2019-03-26T03:36:32.604Z,3.30
2019-03-26T03:39:19.123Z,3.37
2019-03-26T03:42:05.415Z,3.10
2019-03-26T03:44:51.529Z,2.87
2019-03-26T03:47:38.729Z,3.70
2019-03-26T03:50:28.429Z,3.90
2019-03-26T03:53:17.269Z,3.70
2019-03-26T03:56:04.859Z,3.90
2019-03-26T03:58:51.399Z,4.83
2019-03-26T04:01:38.335Z,3.60
2019-03-26T04:04:24.328Z,4.50
2019-03-26T04:07:10.844Z,3.77
2019-03-26T04:09:57.365Z,4.10
2019-03-26T04:12:43.631Z,3.63
2019-03-26T04:15:34.361Z,3.77
2019-03-26T04:18:18.337Z,3.57
2019-03-26T04:21:05.044Z,3.70
2019-03-26T04:23:52.826Z,3.40
2019-03-26T04:26:38.873Z,3.27
2019-03-26T04:29:25.073Z,3.83
2019-03-26T04:32:11.636Z,4.00
2019-03-26T04:34:57.972Z,2.90
2019-03-26T04:37:44.193Z,3.07
2019-03-26T04:40:30.816Z,3.77
2019-03-26T04:43:18.959Z,4.10
2019-03-26T04:46:05.356Z,3.10
2019-03-26T04:48:52.153Z,4.07
2019-03-26T04:51:38.695Z,3.30
2019-03-26T04:54:24.612Z,3.10
2019-03-26T04:57:11.333Z,2.70
2019-03-26T04:59:57.605Z,4.47
2019-03-26T05:02:43.668Z,4.03
2019-03-26T05:05:29.777Z,3.43
2019-03-26T05:08:16.059Z,3.00
2019-03-26T05:11:02.647Z,3.40
2019-03-26T05:13:49.008Z,2.90
2019-03-26T05:16:35.148Z,3.73
2019-03-26T05:19:21.377Z,2.97
2019-03-26T05:22:07.496Z,3.00
2019-03-26T05:24:53.997Z,3.67
2019-03-26T05:27:45.739Z,2.73
2019-03-26T05:30:28.872Z,2.50
2019-03-26T05:33:15.060Z,3.20
2019-03-26T05:36:01.498Z,4.00
2019-03-26T05:38:47.973Z,3.10
2019-03-26T05:41:34.676Z,3.23
2019-03-26T05:44:20.831Z,3.90
2019-03-26T05:47:08.005Z,3.50
2019-03-26T05:49:54.009Z,4.00
2019-03-26T05:52:40.220Z,4.33
2019-03-26T05:55:26.976Z,3.40
2019-03-26T05:58:14.429Z,3.03
2019-03-26T06:01:00.687Z,4.40
2019-03-26T06:03:46.948Z,2.93
2019-03-26T06:06:32.888Z,3.60
2019-03-26T06:09:19.496Z,2.90
2019-03-26T06:12:05.998Z,3.07
2019-03-26T06:14:52.248Z,3.30
2019-03-26T06:17:38.972Z,3.93
2019-03-26T06:20:25.307Z,2.90
2019-03-26T06:23:12.672Z,3.60
2019-03-26T06:25:59.168Z,3.87
2019-03-26T06:28:45.473Z,3.47
2019-03-26T06:31:32.187Z,3.77
2019-03-26T06:34:18.549Z,3.13
2019-03-26T06:37:17.087Z,3.17
2019-03-26T06:39:53.149Z,3.30
2019-03-26T06:42:40.049Z,3.03
2019-03-26T06:45:26.393Z,3.17
2019-03-26T06:48:12.333Z,4.37
2019-03-26T06:50:59.284Z,3.07
2019-03-26T06:53:45.556Z,3.57
2019-03-26T06:56:31.669Z,3.73
2019-03-26T06:59:18.430Z,3.63
2019-03-26T07:02:04.843Z,3.47
2019-03-26T07:04:51.074Z,3.13
2019-03-26T07:07:37.266Z,3.20
2019-03-26T07:10:27.151Z,2.50
2019-03-26T07:13:14.428Z,2.73
2019-03-26T07:16:02.910Z,3.10
2019-03-26T07:18:49.285Z,2.70
2019-03-26T07:21:35.393Z,2.60
2019-03-26T07:24:21.612Z,3.13
2019-03-26T07:27:08.220Z,3.00
2019-03-26T07:29:54.509Z,2.90
2019-03-26T07:32:40.461Z,3.30
2019-03-26T07:35:30.650Z,2.57
2019-03-26T07:38:17.277Z,3.63
2019-03-26T07:41:03.602Z,3.00
2019-03-26T07:43:50.316Z,3.50
2019-03-26T07:46:36.573Z,2.97
2019-03-26T07:49:22.718Z,2.97
2019-03-26T07:52:09.497Z,3.17
2019-03-26T07:54:55.821Z,3.27
2019-03-26T07:57:41.919Z,3.50
2019-03-26T08:00:36.122Z,2.30
2019-03-26T08:03:21.865Z,2.60
2019-03-26T08:06:08.289Z,3.10
2019-03-26T08:08:54.736Z,3.33
2019-03-26T08:11:41.006Z,3.57
2019-03-26T08:14:27.526Z,2.67
2019-03-26T08:17:14.578Z,3.23
2019-03-26T08:20:00.726Z,2.30
2019-03-26T08:22:47.609Z,2.73
2019-03-26T08:25:34.514Z,1.80
2019-03-26T08:28:20.810Z,2.60
2019-03-26T08:31:06.938Z,3.00
2019-03-26T08:33:53.613Z,3.33
2019-03-26T08:36:40.238Z,2.37
2019-03-26T08:39:26.709Z,2.47
2019-03-26T08:42:12.765Z,3.03
2019-03-26T08:44:59.062Z,3.07
2019-03-26T08:47:45.785Z,2.83
2019-03-26T08:50:32.375Z,2.87
2019-03-26T08:53:19.105Z,3.17
2019-03-26T08:56:06.076Z,2.73
2019-03-26T08:58:52.489Z,3.17
2019-03-26T09:01:38.971Z,2.77
2019-03-26T09:04:26.996Z,2.90
2019-03-26T09:07:14.038Z,3.17
2019-03-26T09:10:00.416Z,2.70
2019-03-26T09:12:47.073Z,3.17
2019-03-26T09:15:33.385Z,3.07
2019-03-26T09:18:19.477Z,3.80
2019-03-26T09:21:05.683Z,3.47
2019-03-26T09:23:52.386Z,2.27
2019-03-26T09:26:38.733Z,3.53
2019-03-26T09:29:25.165Z,3.00
2019-03-26T09:32:11.246Z,4.27
2019-03-26T09:34:57.576Z,2.97
2019-03-26T09:37:43.699Z,2.77
2019-03-26T09:40:30.060Z,2.90
2019-03-26T09:43:17.018Z,3.97
2019-03-26T09:46:03.277Z,3.30
2019-03-26T09:48:51.898Z,3.70
2019-03-26T09:51:38.633Z,3.30
2019-03-26T09:54:24.630Z,3.57
2019-03-26T09:57:10.982Z,3.00
2019-03-26T09:59:57.142Z,3.10
2019-03-26T10:02:43.848Z,4.57
2019-03-26T10:05:30.214Z,3.53
2019-03-26T10:08:18.050Z,3.77
2019-03-26T10:11:04.438Z,3.73
2019-03-26T10:13:50.811Z,3.07
2019-03-26T10:16:37.118Z,3.27
2019-03-26T10:19:24.635Z,3.93
2019-03-26T10:22:10.886Z,3.63
2019-03-26T10:24:57.042Z,3.70
2019-03-26T10:27:43.910Z,3.40
2019-03-26T10:30:40.169Z,3.37
2019-03-26T10:33:26.218Z,4.07
2019-03-26T10:36:12.763Z,3.80
2019-03-26T10:39:05.320Z,4.07
2019-03-26T10:41:47.006Z,3.63
2019-03-26T10:44:33.504Z,3.40
2019-03-26T10:47:20.215Z,3.83
2019-03-26T10:50:06.677Z,3.93
2019-03-26T10:52:53.637Z,3.50
2019-03-26T10:55:39.730Z,3.93
2019-03-26T10:58:25.919Z,2.67
2019-03-26T11:01:12.126Z,3.80
2019-03-26T11:03:59.998Z,4.53
2019-03-26T11:06:46.279Z,3.00
2019-03-26T11:09:32.408Z,3.30
2019-03-26T11:12:19.640Z,2.70
2019-03-26T11:15:08.036Z,2.93
2019-03-26T11:17:54.298Z,2.87
2019-03-26T11:20:40.499Z,3.60
2019-03-26T11:23:26.659Z,3.03
2019-03-26T11:26:12.909Z,3.90
2019-03-26T11:28:59.229Z,3.70
2019-03-26T11:31:45.791Z,3.30
2019-03-26T11:34:31.895Z,3.27
2019-03-26T11:37:18.563Z,3.43
2019-03-26T11:40:05.120Z,3.47
2019-03-26T11:42:51.515Z,2.93
2019-03-26T11:45:37.610Z,3.10
2019-03-26T11:48:23.839Z,3.00
2019-03-26T11:51:10.030Z,3.13
2019-03-26T11:53:57.526Z,3.53
2019-03-26T11:56:44.436Z,4.27
2019-03-26T11:59:30.915Z,3.37
2019-03-26T12:02:17.732Z,3.83
2019-03-26T12:05:05.208Z,3.37
2019-03-26T12:07:51.080Z,3.93
2019-03-26T12:10:37.570Z,4.87
2019-03-26T12:13:23.484Z,3.50
2019-03-26T12:16:09.829Z,3.80
2019-03-26T12:18:59.803Z,4.37
2019-03-26T12:21:50.459Z,3.57
2019-03-26T12:24:36.766Z,4.03
2019-03-26T12:27:24.027Z,4.17
2019-03-26T12:30:11.179Z,3.60
2019-03-26T12:32:58.507Z,2.70
2019-03-26T12:35:44.931Z,2.57
2019-03-26T12:38:32.555Z,3.13
2019-03-26T12:41:19.327Z,3.80
2019-03-26T12:44:05.653Z,4.37
2019-03-26T12:46:51.839Z,3.20
2019-03-26T12:49:37.911Z,3.23
2019-03-26T12:52:24.793Z,3.40
2019-03-26T12:55:10.809Z,3.10
2019-03-26T12:57:56.855Z,2.70
2019-03-26T13:00:43.325Z,3.23
2019-03-26T13:03:29.680Z,2.97
2019-03-26T13:06:16.043Z,3.20
2019-03-26T13:09:02.392Z,2.67
2019-03-26T13:11:48.760Z,3.10
2019-03-26T13:14:35.324Z,3.33
2019-03-26T13:17:21.960Z,2.57
2019-03-26T13:20:08.839Z,3.30
2019-03-26T13:22:56.196Z,2.57
2019-03-26T13:25:42.644Z,3.03
2019-03-26T13:28:29.743Z,3.20
2019-03-26T13:31:15.808Z,3.63
2019-03-26T13:34:01.865Z,2.80
2019-03-26T13:36:47.905Z,3.87
2019-03-26T13:39:35.233Z,3.73
2019-03-26T13:42:21.569Z,3.40
2019-03-26T13:45:08.078Z,2.97
2019-03-26T13:47:54.262Z,3.27
2019-03-26T13:50:40.936Z,3.57
2019-03-26T13:53:27.601Z,3.70
2019-03-26T13:56:13.620Z,3.00
2019-03-26T13:58:59.968Z,2.90
2019-03-26T14:01:46.020Z,2.80
2019-03-26T14:04:32.316Z,3.07
2019-03-26T14:07:20.485Z,2.70
2019-03-26T14:10:07.068Z,3.43
2019-03-26T14:12:53.566Z,3.10
2019-03-26T14:15:40.120Z,3.47
2019-03-26T14:18:26.368Z,2.90
2019-03-26T14:21:13.159Z,3.33
2019-03-26T14:23:59.784Z,3.17
2019-03-26T14:26:46.285Z,3.50
2019-03-26T14:29:32.491Z,4.10
2019-03-26T14:32:19.098Z,3.80
2019-03-26T14:35:06.221Z,3.00
2019-03-26T14:37:55.385Z,3.07
2019-03-26T14:40:53.994Z,2.43
2019-03-26T14:43:30.050Z,3.30
2019-03-26T14:46:16.325Z,2.80
2019-03-26T14:49:03.241Z,2.37
2019-03-26T14:51:49.541Z,2.67
2019-03-26T14:54:35.528Z,3.07
2019-03-26T14:57:22.033Z,2.27
2019-03-26T15:00:08.763Z,2.80
2019-03-26T15:02:55.245Z,2.87
2019-03-26T15:05:41.477Z,2.40
2019-03-26T15:08:27.741Z,2.50
2019-03-26T15:11:13.723Z,2.93
2019-03-26T15:14:01.372Z,2.70
2019-03-26T15:16:47.857Z,2.13
2019-03-26T15:19:34.528Z,3.03
2019-03-26T15:22:20.660Z,3.70
2019-03-26T15:25:07.167Z,2.67
2019-03-26T15:27:53.413Z,3.67
2019-03-26T15:30:39.966Z,2.80
2019-03-26T15:33:26.262Z,2.93
2019-03-26T15:36:12.368Z,3.80
2019-03-26T15:38:58.938Z,4.40
2019-03-26T15:41:45.100Z,4.10
2019-03-26T15:44:31.473Z,5.00
2019-03-26T15:47:18.278Z,3.40
2019-03-26T15:50:05.545Z,3.57
2019-03-26T15:52:51.866Z,3.63
2019-03-26T15:55:38.571Z,4.10
2019-03-26T15:58:24.854Z,3.40
2019-03-26T16:01:14.212Z,3.57
2019-03-26T16:04:00.885Z,3.80
2019-03-26T16:06:46.788Z,3.50
2019-03-26T16:09:34.005Z,3.43
2019-03-26T16:12:20.316Z,3.63
2019-03-26T16:15:06.810Z,3.60
2019-03-26T16:17:52.874Z,3.33
2019-03-26T16:20:41.108Z,3.33
2019-03-26T16:23:27.462Z,4.50
2019-03-26T16:26:13.981Z,3.57
2019-03-26T16:29:03.437Z,3.93
2019-03-26T16:31:49.958Z,3.93
2019-03-26T16:34:36.226Z,3.83
2019-03-26T16:37:23.858Z,3.53
2019-03-26T16:40:10.570Z,3.47
2019-03-26T16:42:56.720Z,5.27
2019-03-26T16:45:44.796Z,3.73
2019-03-26T16:48:31.215Z,3.30
2019-03-26T16:51:17.791Z,4.33
2019-03-26T16:54:05.429Z,4.17
2019-03-26T16:56:51.793Z,3.50
2019-03-26T16:59:39.257Z,3.67
2019-03-26T17:02:25.884Z,5.30
2019-03-26T17:05:16.320Z,7.60
2019-03-26T17:08:15.315Z,5.30
2019-03-26T17:11:18.829Z,4.47
2019-03-26T17:14:05.147Z,4.80
2019-03-26T17:16:51.861Z,6.07
2019-03-26T17:19:38.322Z,4.40
2019-03-26T17:22:24.741Z,4.50
2019-03-26T17:25:11.712Z,3.93
2019-03-26T17:27:58.382Z,4.80
2019-03-26T17:30:44.886Z,4.63
2019-03-26T17:33:32.045Z,5.40
2019-03-26T17:36:18.097Z,4.73
2019-03-26T17:39:06.578Z,5.70
2019-03-26T17:41:53.363Z,7.87
2019-03-26T17:44:39.941Z,7.67
2019-03-26T17:47:26.063Z,7.70
2019-03-26T17:50:13.695Z,8.77
2019-03-26T17:52:59.790Z,9.87
2019-03-26T17:55:46.479Z,7.17
2019-03-26T17:58:33.315Z,6.70
2019-03-26T18:01:19.603Z,7.40
2019-03-26T18:04:06.215Z,10.93
2019-03-26T18:06:53.781Z,6.00
2019-03-26T18:09:40.139Z,4.50
2019-03-26T18:12:31.119Z,3.63
2019-03-26T18:15:15.607Z,3.47
2019-03-26T18:18:02.608Z,3.47
2019-03-26T18:20:48.822Z,3.20
2019-03-26T18:23:35.056Z,3.37
2019-03-26T18:26:22.022Z,3.30
2019-03-26T18:29:08.382Z,2.60
2019-03-26T18:31:54.503Z,3.03
2019-03-26T18:34:41.794Z,3.03
2019-03-26T18:37:32.571Z,2.90
2019-03-26T18:40:19.859Z,3.00
2019-03-26T18:43:06.454Z,3.33
2019-03-26T18:45:52.882Z,3.20
2019-03-26T18:48:41.505Z,3.73
2019-03-26T18:51:27.863Z,3.30
2019-03-26T18:54:14.070Z,3.13
2019-03-26T18:57:00.530Z,3.70
2019-03-26T18:59:46.623Z,4.20
2019-03-26T19:02:33.411Z,4.80
2019-03-26T19:05:19.883Z,4.47
2019-03-26T19:08:06.787Z,4.60
2019-03-26T19:10:53.108Z,3.90
2019-03-26T19:13:39.409Z,3.93
2019-03-26T19:16:25.771Z,3.43
2019-03-26T19:19:11.859Z,3.73
2019-03-26T19:21:58.331Z,3.20
2019-03-26T19:24:44.794Z,4.10
2019-03-26T19:27:31.259Z,4.83
2019-03-26T19:30:17.479Z,5.07
2019-03-26T19:33:03.971Z,4.33
2019-03-26T19:35:50.590Z,4.30
2019-03-26T19:38:36.765Z,4.13
2019-03-26T19:41:23.831Z,3.67
2019-03-26T19:44:10.720Z,3.37
2019-03-26T19:46:58.403Z,3.70
2019-03-26T19:49:44.994Z,3.37
2019-03-26T19:52:31.551Z,4.03
2019-03-26T19:55:17.731Z,5.10
2019-03-26T19:58:04.184Z,4.17
2019-03-26T20:00:50.740Z,5.13
2019-03-26T20:03:36.871Z,4.53
2019-03-26T20:06:24.115Z,5.03
2019-03-26T20:09:10.310Z,3.90
2019-03-26T20:11:56.335Z,3.67
2019-03-26T20:14:43.424Z,3.87
2019-03-26T20:17:30.339Z,3.47
2019-03-26T20:20:17.559Z,4.73
2019-03-26T20:23:04.787Z,4.73
2019-03-26T20:25:51.706Z,4.70
2019-03-26T20:28:38.301Z,4.97
2019-03-26T20:31:25.107Z,4.03
2019-03-26T20:34:11.211Z,4.70
2019-03-26T20:36:57.402Z,5.90
2019-03-26T20:39:44.313Z,5.53
2019-03-26T20:42:30.820Z,5.20
2019-03-26T20:45:17.523Z,4.43
2019-03-26T20:48:04.232Z,6.43
2019-03-26T20:50:50.853Z,5.47
2019-03-26T20:53:37.547Z,6.40
2019-03-26T20:56:24.780Z,4.87
2019-03-26T20:59:10.999Z,5.27
2019-03-26T21:01:57.060Z,6.00
2019-03-26T21:04:44.040Z,6.33
2019-03-26T21:07:30.494Z,4.27
2019-03-26T21:10:16.719Z,4.00
2019-03-26T21:13:03.652Z,3.47
2019-03-26T21:15:57.132Z,4.20
2019-03-26T21:18:38.739Z,4.10
2019-03-26T21:21:25.375Z,3.33
2019-03-26T21:24:11.598Z,3.77
2019-03-26T21:26:58.324Z,4.00
2019-03-26T21:29:44.530Z,4.53
2019-03-26T21:32:31.219Z,4.20
2019-03-26T21:35:18.427Z,4.87
2019-03-26T21:38:05.280Z,5.03
2019-03-26T21:40:51.475Z,4.97
2019-03-26T21:43:38.652Z,4.33
2019-03-26T21:46:25.807Z,4.43
2019-03-26T21:49:13.011Z,4.20
2019-03-26T21:52:00.865Z,4.20
2019-03-26T21:54:47.240Z,4.30
2019-03-26T21:57:35.230Z,4.57
2019-03-26T22:00:21.527Z,5.20
2019-03-26T22:03:07.833Z,4.90
2019-03-26T22:05:53.942Z,6.80
2019-03-26T22:08:40.011Z,6.43
2019-03-26T22:11:26.569Z,9.83
2019-03-26T22:14:18.266Z,8.07
2019-03-26T22:17:00.918Z,7.10
2019-03-26T22:19:47.488Z,7.13
2019-03-26T22:22:34.179Z,6.53
2019-03-26T22:25:20.225Z,6.60
2019-03-26T22:28:06.901Z,6.27
2019-03-26T22:30:52.912Z,7.00
2019-03-26T22:33:39.132Z,6.63
2019-03-26T22:36:26.860Z,7.90
2019-03-26T22:39:13.117Z,7.93
2019-03-26T22:41:59.669Z,7.33
2019-03-26T22:44:46.962Z,7.33
2019-03-26T22:47:33.371Z,7.20
2019-03-26T22:50:19.714Z,7.70
2019-03-26T22:53:06.470Z,8.90
2019-03-26T22:55:52.917Z,8.77
2019-03-26T22:58:39.621Z,9.30
2019-03-26T23:01:26.205Z,9.17
2019-03-26T23:04:12.299Z,7.10
2019-03-26T23:06:58.859Z,5.60
2019-03-26T23:09:45.305Z,5.80
2019-03-26T23:12:31.415Z,5.70
2019-03-26T23:15:22.340Z,6.93
2019-03-26T23:18:09.281Z,5.80
2019-03-26T23:20:55.813Z,5.93
2019-03-26T23:23:42.578Z,6.20
2019-03-26T23:26:29.121Z,6.37
2019-03-26T23:29:15.436Z,7.70
2019-03-26T23:32:01.998Z,8.63
2019-03-26T23:34:48.686Z,9.43
2019-03-26T23:37:35.097Z,10.17
2019-03-26T23:40:21.758Z,9.80
2019-03-26T23:43:08.265Z,9.40
2019-03-26T23:45:55.068Z,10.50
2019-03-26T23:48:41.451Z,8.83
2019-03-26T23:51:27.765Z,9.40
2019-03-26T23:54:13.925Z,8.57
2019-03-26T23:57:00.795Z,8.20
2019-03-26T23:59:47.110Z,7.93
